createdAt,value
2018-09-28T00:02:18.906Z,84.30
2018-09-28T00:04:47.442Z,84.50
2018-09-28T00:07:16.026Z,84.70
2018-09-28T00:09:44.698Z,84.60
2018-09-28T00:12:13.520Z,84.80
2018-09-28T00:14:42.684Z,85.00
2018-09-28T00:17:14.269Z,85.40
2018-09-28T00:19:42.906Z,85.90
2018-09-28T00:22:11.486Z,85.90
2018-09-28T00:24:40.377Z,86.00
2018-09-28T00:27:08.881Z,86.00
2018-09-28T00:29:37.768Z,86.20
2018-09-28T00:32:06.639Z,86.40
2018-09-28T00:34:35.607Z,86.80
2018-09-28T00:37:04.298Z,88.00
2018-09-28T00:39:33.063Z,88.20
2018-09-28T00:42:01.811Z,88.80
2018-09-28T00:44:30.345Z,89.50
2018-09-28T00:46:59.048Z,90.30
2018-09-28T00:49:27.702Z,90.50
2018-09-28T00:51:56.375Z,90.70
2018-09-28T00:54:31.384Z,91.00
2018-09-28T00:56:59.985Z,91.20
2018-09-28T00:59:29.231Z,91.20
2018-09-28T01:01:57.802Z,91.20
2018-09-28T01:04:26.414Z,91.20
2018-09-28T01:06:55.015Z,91.10
2018-09-28T01:09:24.228Z,91.10
2018-09-28T01:11:52.839Z,91.30
2018-09-28T01:14:21.501Z,91.50
2018-09-28T01:16:50.084Z,91.60
2018-09-28T01:19:18.625Z,91.70
2018-09-28T01:21:47.228Z,91.90
2018-09-28T01:24:15.780Z,92.00
2018-09-28T01:26:44.427Z,92.20
2018-09-28T01:29:12.984Z,92.20
2018-09-28T01:31:41.652Z,92.30
2018-09-28T01:34:10.335Z,92.30
2018-09-28T01:36:38.986Z,92.40
2018-09-28T01:39:08.526Z,92.50
2018-09-28T01:41:37.131Z,92.50
2018-09-28T01:44:05.789Z,92.60
2018-09-28T01:46:34.355Z,92.70
2018-09-28T01:49:02.977Z,92.80
2018-09-28T01:51:31.626Z,92.90
2018-09-28T01:54:00.248Z,92.90
2018-09-28T01:56:30.525Z,93.00
2018-09-28T01:58:59.196Z,93.10
2018-09-28T02:01:27.882Z,93.00
2018-09-28T02:03:56.597Z,93.00
2018-09-28T02:06:25.470Z,93.10
2018-09-28T02:08:54.084Z,93.10
2018-09-28T02:11:22.657Z,93.10
2018-09-28T02:13:51.349Z,93.20
2018-09-28T02:16:20.935Z,93.20
2018-09-28T02:18:49.564Z,93.30
2018-09-28T02:21:18.112Z,93.30
2018-09-28T02:23:47.226Z,93.30
2018-09-28T02:26:16.285Z,93.40
2018-09-28T02:28:44.931Z,93.40
2018-09-28T02:31:13.609Z,93.50
2018-09-28T02:33:42.196Z,93.50
2018-09-28T02:36:10.780Z,93.50
2018-09-28T02:38:39.352Z,93.50
2018-09-28T02:41:08.048Z,93.50
2018-09-28T02:43:36.709Z,93.50
2018-09-28T02:46:05.891Z,93.60
2018-09-28T02:48:34.499Z,93.50
2018-09-28T02:51:03.141Z,93.60
2018-09-28T02:53:31.833Z,93.70
2018-09-28T02:56:00.498Z,93.70
2018-09-28T02:58:29.068Z,93.80
2018-09-28T03:00:57.673Z,93.80
2018-09-28T03:03:26.213Z,93.90
2018-09-28T03:05:54.750Z,93.80
2018-09-28T03:08:23.369Z,93.80
2018-09-28T03:10:51.942Z,93.90
2018-09-28T03:13:20.549Z,93.90
2018-09-28T03:15:49.108Z,93.90
2018-09-28T03:18:18.374Z,94.00
2018-09-28T03:20:46.962Z,94.00
2018-09-28T03:23:15.611Z,94.10
2018-09-28T03:25:44.213Z,94.20
2018-09-28T03:28:12.736Z,94.30
2018-09-28T03:30:41.340Z,94.20
2018-09-28T03:33:10.050Z,94.30
2018-09-28T03:35:38.837Z,94.30
2018-09-28T03:38:07.394Z,94.30
2018-09-28T03:40:36.018Z,94.40
2018-09-28T03:43:04.646Z,94.40
2018-09-28T03:45:33.165Z,94.40
2018-09-28T03:48:01.753Z,94.40
2018-09-28T03:50:30.396Z,94.40
2018-09-28T03:52:58.961Z,94.50
2018-09-28T03:55:27.505Z,94.50
2018-09-28T03:57:56.110Z,94.50
2018-09-28T04:00:25.274Z,94.60
2018-09-28T04:02:53.919Z,94.40
2018-09-28T04:05:23.256Z,94.30
2018-09-28T04:07:51.837Z,94.50
2018-09-28T04:10:20.532Z,94.40
2018-09-28T04:12:49.073Z,94.40
2018-09-28T04:15:17.660Z,94.30
2018-09-28T04:17:46.283Z,94.30
2018-09-28T04:20:15.652Z,94.10
2018-09-28T04:22:44.268Z,94.00
2018-09-28T04:25:12.953Z,94.00
2018-09-28T04:27:41.604Z,94.10
2018-09-28T04:30:10.264Z,94.10
2018-09-28T04:32:38.890Z,93.90
2018-09-28T04:35:07.550Z,93.90
2018-09-28T04:37:37.149Z,93.90
2018-09-28T04:40:05.777Z,94.10
2018-09-28T04:42:34.636Z,94.40
2018-09-28T04:45:03.320Z,94.70
2018-09-28T04:47:31.844Z,94.90
2018-09-28T04:50:00.466Z,94.90
2018-09-28T04:52:29.053Z,94.80
2018-09-28T04:54:57.624Z,94.70
2018-09-28T04:57:26.201Z,94.70
2018-09-28T04:59:54.810Z,94.70
2018-09-28T05:02:23.417Z,94.70
2018-09-28T05:04:52.012Z,94.70
2018-09-28T05:07:20.592Z,94.60
2018-09-28T05:09:49.161Z,94.70
2018-09-28T05:12:17.704Z,94.90
2018-09-28T05:14:46.299Z,94.90
2018-09-28T05:17:14.869Z,94.80
2018-09-28T05:19:43.522Z,94.90
2018-09-28T05:22:12.180Z,94.70
2018-09-28T05:24:40.831Z,94.50
2018-09-28T05:27:09.401Z,94.60
2018-09-28T05:29:37.956Z,94.40
2018-09-28T05:32:06.593Z,94.40
2018-09-28T05:34:35.190Z,94.60
2018-09-28T05:37:04.091Z,94.60
2018-09-28T05:39:32.717Z,94.60
2018-09-28T05:42:01.212Z,94.60
2018-09-28T05:44:29.735Z,94.60
2018-09-28T05:46:58.327Z,94.50
2018-09-28T05:49:27.454Z,94.60
2018-09-28T05:51:55.976Z,94.60
2018-09-28T05:54:24.574Z,94.50
2018-09-28T05:56:53.307Z,94.50
2018-09-28T05:59:27.030Z,94.40
2018-09-28T06:02:00.864Z,94.30
2018-09-28T06:04:34.723Z,94.30
2018-09-28T06:07:04.053Z,94.30
2018-09-28T06:09:32.582Z,94.20
2018-09-28T06:12:01.212Z,94.40
2018-09-28T06:14:29.838Z,94.30
2018-09-28T06:16:58.399Z,94.30
2018-09-28T06:19:27.010Z,94.30
2018-09-28T06:21:55.553Z,94.20
2018-09-28T06:24:24.317Z,94.20
2018-09-28T06:26:53.309Z,94.00
2018-09-28T06:29:21.902Z,93.90
2018-09-28T06:31:50.483Z,93.70
2018-09-28T06:34:20.874Z,93.50
2018-09-28T06:36:49.476Z,93.40
2018-09-28T06:39:18.078Z,93.50
2018-09-28T06:41:46.778Z,93.40
2018-09-28T06:44:15.399Z,93.30
2018-09-28T06:46:44.070Z,93.30
2018-09-28T06:49:12.681Z,93.00
2018-09-28T06:51:41.311Z,93.10
2018-09-28T06:54:09.949Z,92.80
2018-09-28T06:56:38.627Z,93.00
2018-09-28T06:59:07.281Z,92.70
2018-09-28T07:01:35.905Z,92.70
2018-09-28T07:04:04.644Z,92.80
2018-09-28T07:06:33.399Z,92.50
2018-09-28T07:09:02.018Z,92.50
2018-09-28T07:11:30.720Z,92.30
2018-09-28T07:13:59.357Z,92.00
2018-09-28T07:16:28.207Z,92.10
2018-09-28T07:18:56.702Z,92.10
2018-09-28T07:21:25.423Z,91.70
2018-09-28T07:23:54.044Z,91.70
2018-09-28T07:26:22.669Z,91.70
2018-09-28T07:28:51.224Z,91.70
2018-09-28T07:31:19.822Z,91.50
2018-09-28T07:33:48.527Z,91.40
2018-09-28T07:36:17.194Z,90.90
2018-09-28T07:38:45.799Z,91.00
2018-09-28T07:41:14.407Z,91.20
2018-09-28T07:43:43.109Z,91.30
2018-09-28T07:46:11.871Z,90.90
2018-09-28T07:48:41.554Z,91.30
2018-09-28T07:51:10.245Z,91.10
2018-09-28T07:53:38.828Z,91.10
2018-09-28T07:56:07.720Z,91.30
2018-09-28T07:58:36.292Z,91.20
2018-09-28T08:01:04.859Z,91.20
2018-09-28T08:03:33.494Z,91.20
2018-09-28T08:06:02.033Z,90.60
2018-09-28T08:08:30.638Z,90.70
2018-09-28T08:10:59.279Z,90.70
2018-09-28T08:13:27.875Z,90.20
2018-09-28T08:15:56.394Z,90.40
2018-09-28T08:18:25.049Z,90.80
2018-09-28T08:20:53.650Z,91.50
2018-09-28T08:23:22.369Z,91.00
2018-09-28T08:25:50.879Z,89.40
2018-09-28T08:28:19.433Z,89.20
2018-09-28T08:30:47.996Z,88.80
2018-09-28T08:33:16.582Z,89.20
2018-09-28T08:35:45.169Z,87.80
2018-09-28T08:38:13.769Z,88.10
2018-09-28T08:40:42.333Z,87.60
2018-09-28T08:43:10.877Z,88.00
2018-09-28T08:45:39.467Z,87.80
2018-09-28T08:48:08.142Z,88.10
2018-09-28T08:50:36.864Z,88.10
2018-09-28T08:53:05.463Z,87.90
2018-09-28T08:55:34.049Z,88.00
2018-09-28T08:58:02.580Z,88.30
2018-09-28T09:00:31.358Z,88.60
2018-09-28T09:02:59.919Z,87.60
2018-09-28T09:05:29.192Z,89.00
2018-09-28T09:07:57.824Z,86.90
2018-09-28T09:10:26.435Z,88.70
2018-09-28T09:12:55.000Z,86.20
2018-09-28T09:15:23.567Z,86.10
2018-09-28T09:17:52.198Z,84.80
2018-09-28T09:20:20.810Z,85.70
2018-09-28T09:22:49.362Z,86.00
2018-09-28T09:25:17.978Z,84.10
2018-09-28T09:27:46.557Z,84.90
2018-09-28T09:30:15.235Z,86.20
2018-09-28T09:32:43.898Z,86.30
2018-09-28T09:35:12.532Z,84.30
2018-09-28T09:37:41.091Z,83.60
2018-09-28T09:40:09.709Z,83.90
2018-09-28T09:42:38.393Z,85.80
2018-09-28T09:45:06.949Z,83.20
2018-09-28T09:47:35.590Z,80.70
2018-09-28T09:50:04.172Z,79.50
2018-09-28T09:52:32.748Z,78.60
2018-09-28T09:55:01.415Z,79.90
2018-09-28T09:57:30.030Z,81.30
2018-09-28T09:59:58.570Z,80.90
2018-09-28T10:02:33.663Z,79.70
2018-09-28T10:05:02.239Z,78.40
2018-09-28T10:07:31.520Z,78.20
2018-09-28T10:10:00.261Z,75.50
2018-09-28T10:12:28.896Z,75.60
2018-09-28T10:14:57.375Z,74.50
2018-09-28T10:17:25.954Z,74.90
2018-09-28T10:19:54.505Z,75.50
2018-09-28T10:22:23.200Z,75.20
2018-09-28T10:24:51.859Z,75.50
2018-09-28T10:27:20.553Z,75.40
2018-09-28T10:29:49.117Z,74.90
2018-09-28T10:32:17.678Z,76.10
2018-09-28T10:34:46.469Z,76.00
2018-09-28T10:37:15.089Z,75.40
2018-09-28T10:39:43.855Z,75.00
2018-09-28T10:42:12.382Z,74.30
2018-09-28T10:44:40.970Z,74.20
2018-09-28T10:47:09.584Z,72.30
2018-09-28T10:49:38.266Z,70.70
2018-09-28T10:52:07.739Z,70.30
2018-09-28T10:54:36.537Z,70.50
2018-09-28T10:57:05.114Z,70.30
2018-09-28T10:59:33.708Z,71.90
2018-09-28T11:02:02.280Z,72.30
2018-09-28T11:04:30.893Z,74.60
2018-09-28T11:06:59.744Z,75.30
2018-09-28T11:09:28.338Z,77.00
2018-09-28T11:11:56.973Z,70.50
2018-09-28T11:14:25.675Z,69.80
2018-09-28T11:16:54.385Z,70.10
2018-09-28T11:19:23.024Z,70.00
2018-09-28T11:21:51.671Z,69.00
2018-09-28T11:24:20.289Z,69.00
2018-09-28T11:26:48.856Z,68.10
2018-09-28T11:29:17.442Z,68.50
2018-09-28T11:31:46.073Z,67.50
2018-09-28T11:34:14.628Z,66.80
2018-09-28T11:36:43.228Z,66.70
2018-09-28T11:39:12.001Z,67.80
2018-09-28T11:41:40.675Z,72.10
2018-09-28T11:44:09.461Z,68.00
2018-09-28T11:46:38.032Z,66.60
2018-09-28T11:49:06.907Z,66.20
2018-09-28T11:51:35.526Z,67.40
2018-09-28T11:54:04.230Z,68.40
2018-09-28T11:56:32.772Z,72.60
2018-09-28T11:59:01.307Z,70.80
2018-09-28T12:01:29.937Z,72.20
2018-09-28T12:03:58.568Z,70.50
2018-09-28T12:06:27.188Z,79.10
2018-09-28T12:08:55.783Z,65.30
2018-09-28T12:11:24.490Z,62.90
2018-09-28T12:13:53.184Z,66.50
2018-09-28T12:16:21.840Z,71.00
2018-09-28T12:18:50.545Z,77.90
2018-09-28T12:21:19.068Z,83.50
2018-09-28T12:23:47.617Z,78.90
2018-09-28T12:26:16.159Z,75.80
2018-09-28T12:28:44.793Z,75.20
2018-09-28T12:31:13.416Z,71.60
2018-09-28T12:33:42.028Z,70.80
2018-09-28T12:36:10.637Z,57.70
2018-09-28T12:38:39.747Z,52.90
2018-09-28T12:41:08.392Z,51.90
2018-09-28T12:43:37.070Z,51.90
2018-09-28T12:46:05.630Z,52.20
2018-09-28T12:48:34.333Z,51.50
2018-09-28T12:51:03.007Z,51.70
2018-09-28T12:53:31.578Z,51.60
2018-09-28T12:56:00.211Z,51.80
2018-09-28T12:58:28.902Z,51.60
2018-09-28T13:00:57.575Z,52.20
2018-09-28T13:03:26.087Z,52.30
2018-09-28T13:05:54.659Z,52.90
2018-09-28T13:08:23.339Z,54.20
2018-09-28T13:10:52.467Z,54.40
2018-09-28T13:13:21.031Z,58.20
2018-09-28T13:15:49.663Z,57.90
2018-09-28T13:18:18.249Z,61.20
2018-09-28T13:20:46.857Z,68.40
2018-09-28T13:23:15.409Z,70.70
2018-09-28T13:25:45.429Z,68.20
2018-09-28T13:28:14.080Z,64.90
2018-09-28T13:30:42.826Z,57.00
2018-09-28T13:33:11.369Z,53.90
2018-09-28T13:35:40.015Z,48.40
2018-09-28T13:38:08.761Z,45.20
2018-09-28T13:40:37.433Z,45.10
2018-09-28T13:43:06.238Z,45.70
2018-09-28T13:45:35.053Z,45.20
2018-09-28T13:48:03.666Z,45.40
2018-09-28T13:50:32.263Z,45.90
2018-09-28T13:53:01.167Z,46.80
2018-09-28T13:55:29.876Z,48.40
2018-09-28T13:57:58.554Z,50.50
2018-09-28T14:00:27.360Z,58.30
2018-09-28T14:02:55.930Z,57.60
2018-09-28T14:05:24.562Z,57.30
2018-09-28T14:07:53.256Z,54.40
2018-09-28T14:10:22.000Z,53.00
2018-09-28T14:12:50.609Z,49.90
2018-09-28T14:15:19.207Z,53.70
2018-09-28T14:17:47.829Z,54.30
2018-09-28T14:20:16.506Z,53.30
2018-09-28T14:22:45.166Z,51.10
2018-09-28T14:25:13.685Z,50.90
2018-09-28T14:27:42.508Z,48.70
2018-09-28T14:30:11.114Z,44.50
2018-09-28T14:32:39.774Z,42.20
2018-09-28T14:35:08.462Z,45.10
2018-09-28T14:37:37.174Z,46.00
2018-09-28T14:40:05.960Z,46.30
2018-09-28T14:42:34.615Z,46.50
2018-09-28T14:45:03.243Z,47.10
2018-09-28T14:47:31.919Z,45.10
2018-09-28T14:50:00.446Z,45.60
2018-09-28T14:52:28.985Z,46.10
2018-09-28T14:54:57.565Z,46.20
2018-09-28T14:57:26.230Z,45.50
2018-09-28T14:59:54.759Z,44.60
2018-09-28T15:02:23.334Z,44.50
2018-09-28T15:04:51.928Z,44.20
2018-09-28T15:07:20.654Z,44.30
2018-09-28T15:09:49.687Z,44.80
2018-09-28T15:12:18.276Z,43.60
2018-09-28T15:14:46.834Z,43.50
2018-09-28T15:17:15.414Z,43.20
2018-09-28T15:19:44.016Z,42.50
2018-09-28T15:22:12.563Z,42.90
2018-09-28T15:24:41.140Z,42.20
2018-09-28T15:27:09.728Z,42.50
2018-09-28T15:29:38.291Z,41.40
2018-09-28T15:32:07.095Z,41.30
2018-09-28T15:34:35.860Z,40.90
2018-09-28T15:37:04.629Z,41.00
2018-09-28T15:39:33.229Z,40.70
2018-09-28T15:42:01.743Z,41.10
2018-09-28T15:44:30.314Z,41.10
2018-09-28T15:46:58.871Z,41.20
2018-09-28T15:49:27.560Z,41.00
2018-09-28T15:51:56.173Z,41.40
2018-09-28T15:54:24.784Z,41.30
2018-09-28T15:56:53.412Z,41.80
2018-09-28T15:59:21.997Z,42.20
2018-09-28T16:01:50.569Z,42.30
2018-09-28T16:04:19.142Z,42.40
2018-09-28T16:06:47.777Z,43.10
2018-09-28T16:09:16.614Z,43.20
2018-09-28T16:11:45.167Z,42.60
2018-09-28T16:14:13.765Z,42.40
2018-09-28T16:16:42.371Z,42.10
2018-09-28T16:19:10.953Z,42.20
2018-09-28T16:21:39.468Z,42.30
2018-09-28T16:24:08.038Z,42.70
2018-09-28T16:26:36.735Z,42.90
2018-09-28T16:29:05.434Z,43.00
2018-09-28T16:31:34.002Z,43.10
2018-09-28T16:34:02.619Z,43.60
2018-09-28T16:36:31.177Z,44.10
2018-09-28T16:38:59.754Z,44.20
2018-09-28T16:41:28.345Z,44.50
2018-09-28T16:43:56.907Z,45.40
2018-09-28T16:46:25.561Z,45.70
2018-09-28T16:48:54.164Z,46.00
2018-09-28T16:51:22.680Z,45.10
2018-09-28T16:53:51.227Z,44.60
2018-09-28T16:56:19.757Z,44.80
2018-09-28T16:58:48.373Z,44.60
2018-09-28T17:01:16.946Z,44.60
2018-09-28T17:03:45.485Z,45.70
2018-09-28T17:06:14.077Z,46.00
2018-09-28T17:08:42.611Z,46.50
2018-09-28T17:11:11.140Z,46.60
2018-09-28T17:13:39.822Z,46.90
2018-09-28T17:16:08.576Z,46.80
2018-09-28T17:18:37.169Z,45.80
2018-09-28T17:21:05.939Z,45.80
2018-09-28T17:23:34.484Z,46.00
2018-09-28T17:26:03.008Z,45.40
2018-09-28T17:28:31.702Z,45.70
2018-09-28T17:31:00.290Z,45.40
2018-09-28T17:33:28.917Z,45.80
2018-09-28T17:35:58.042Z,45.70
2018-09-28T17:38:26.676Z,45.60
2018-09-28T17:40:55.297Z,45.70
2018-09-28T17:43:23.904Z,45.90
2018-09-28T17:45:52.514Z,46.00
2018-09-28T17:48:21.036Z,46.30
2018-09-28T17:50:49.645Z,46.40
2018-09-28T17:53:18.247Z,46.40
2018-09-28T17:55:46.789Z,46.50
2018-09-28T17:58:15.359Z,46.90
2018-09-28T18:00:43.939Z,47.20
2018-09-28T18:03:12.571Z,47.50
2018-09-28T18:05:41.446Z,47.40
2018-09-28T18:08:09.996Z,47.60
2018-09-28T18:10:38.600Z,48.10
2018-09-28T18:13:08.021Z,48.60
2018-09-28T18:15:36.709Z,48.20
2018-09-28T18:18:05.339Z,48.90
2018-09-28T18:20:34.078Z,48.70
2018-09-28T18:23:03.357Z,48.90
2018-09-28T18:25:32.224Z,49.20
2018-09-28T18:28:00.815Z,49.50
2018-09-28T18:30:29.472Z,49.50
2018-09-28T18:32:58.053Z,49.60
2018-09-28T18:35:26.759Z,49.70
2018-09-28T18:37:55.361Z,49.90
2018-09-28T18:40:24.032Z,49.90
2018-09-28T18:42:52.735Z,50.20
2018-09-28T18:45:21.415Z,50.10
2018-09-28T18:47:50.529Z,50.20
2018-09-28T18:50:19.158Z,50.40
2018-09-28T18:52:47.904Z,50.40
2018-09-28T18:55:16.858Z,50.70
2018-09-28T18:57:45.584Z,50.60
2018-09-28T19:00:14.582Z,50.70
2018-09-28T19:02:50.330Z,50.70
2018-09-28T19:05:22.799Z,51.00
2018-09-28T19:07:51.680Z,51.10
2018-09-28T19:10:20.380Z,51.20
2018-09-28T19:12:49.195Z,51.30
2018-09-28T19:15:17.813Z,51.40
2018-09-28T19:17:46.539Z,51.50
2018-09-28T19:20:15.158Z,51.60
2018-09-28T19:22:43.817Z,51.60
2018-09-28T19:25:12.524Z,51.70
2018-09-28T19:27:41.174Z,51.90
2018-09-28T19:30:09.899Z,52.00
2018-09-28T19:32:38.675Z,52.10
2018-09-28T19:35:07.357Z,52.90
2018-09-28T19:37:36.092Z,52.20
2018-09-28T19:41:02.474Z,52.40
2018-09-28T19:43:31.193Z,52.50
2018-09-28T19:46:01.004Z,52.50
2018-09-28T19:48:29.793Z,52.70
2018-09-28T19:50:58.492Z,52.80
2018-09-28T19:53:27.160Z,53.00
2018-09-28T19:55:55.889Z,53.00
2018-09-28T19:58:24.602Z,53.20
2018-09-28T20:00:59.102Z,53.40
2018-09-28T20:03:28.625Z,53.50
2018-09-28T20:05:57.291Z,53.50
2018-09-28T20:08:26.989Z,53.60
2018-09-28T20:10:55.708Z,53.60
2018-09-28T20:13:24.474Z,53.70
2018-09-28T20:15:53.273Z,53.80
2018-09-28T20:18:22.017Z,53.90
2018-09-28T20:20:50.803Z,54.00
2018-09-28T20:23:19.516Z,54.10
2018-09-28T20:25:49.033Z,54.00
2018-09-28T20:28:21.400Z,54.20
2018-09-28T20:30:50.694Z,54.30
2018-09-28T20:33:19.439Z,54.40
2018-09-28T20:35:48.171Z,54.50
2018-09-28T20:38:16.968Z,54.50
2018-09-28T20:40:45.739Z,54.60
2018-09-28T20:43:14.480Z,54.70
2018-09-28T20:45:43.181Z,54.90
2018-09-28T20:48:11.969Z,55.00
2018-09-28T20:50:40.711Z,55.10
2018-09-28T20:53:09.456Z,55.20
2018-09-28T20:55:38.241Z,55.20
2018-09-28T20:58:06.958Z,55.30
2018-09-28T21:00:35.719Z,55.30
2018-09-28T21:03:04.463Z,55.50
2018-09-28T21:05:33.246Z,55.60
2018-09-28T21:08:02.006Z,55.60
2018-09-28T21:10:30.874Z,56.10
2018-09-28T21:13:00.318Z,55.60
2018-09-28T21:15:29.177Z,55.90
2018-09-28T21:17:58.611Z,56.20
2018-09-28T21:20:27.349Z,56.70
2018-09-28T21:22:56.133Z,56.30
2018-09-28T21:25:24.841Z,56.20
2018-09-28T21:27:53.524Z,56.40
2018-09-28T21:30:22.195Z,56.50
2018-09-28T21:32:50.925Z,57.20
2018-09-28T21:35:19.573Z,56.60
2018-09-28T21:37:48.254Z,56.70
2018-09-28T21:40:17.239Z,56.80
2018-09-28T21:42:46.102Z,57.00
2018-09-28T21:45:14.723Z,57.10
2018-09-28T21:47:44.323Z,57.20
2018-09-28T21:50:13.010Z,57.30
2018-09-28T21:52:41.735Z,57.50
2018-09-28T21:55:10.543Z,57.60
2018-09-28T21:57:39.338Z,57.80
2018-09-28T22:00:08.158Z,57.80
2018-09-28T22:02:36.779Z,57.90
2018-09-28T22:05:05.530Z,57.90
2018-09-28T22:07:34.169Z,58.00
2018-09-28T22:10:02.803Z,58.00
2018-09-28T22:12:32.011Z,58.10
2018-09-28T22:15:00.655Z,58.20
2018-09-28T22:17:30.250Z,58.20
2018-09-28T22:19:58.887Z,58.20
2018-09-28T22:22:27.609Z,58.30
2018-09-28T22:24:56.432Z,58.40
2018-09-28T22:27:25.321Z,58.50
2018-09-28T22:29:54.045Z,58.60
2018-09-28T22:32:22.857Z,58.60
2018-09-28T22:34:51.615Z,58.70
2018-09-28T22:37:20.296Z,58.90
2018-09-28T22:39:49.036Z,59.00
2018-09-28T22:42:17.702Z,59.00
2018-09-28T22:44:46.451Z,59.10
2018-09-28T22:47:15.202Z,59.10
2018-09-28T22:49:43.812Z,59.90
2018-09-28T22:52:12.357Z,59.30
2018-09-28T22:54:40.892Z,59.30
2018-09-28T22:57:09.465Z,59.50
2018-09-28T22:59:38.102Z,59.70
2018-09-28T23:02:06.786Z,59.80
2018-09-28T23:04:35.572Z,59.80
2018-09-28T23:07:04.401Z,59.90
2018-09-28T23:09:33.057Z,60.10
2018-09-28T23:12:01.813Z,60.20
2018-09-28T23:14:30.430Z,60.30
2018-09-28T23:16:59.061Z,60.40
2018-09-28T23:19:27.606Z,60.40
2018-09-28T23:21:56.170Z,60.60
2018-09-28T23:24:24.793Z,60.60
2018-09-28T23:26:53.519Z,60.70
2018-09-28T23:29:22.108Z,60.90
2018-09-28T23:31:50.705Z,61.00
2018-09-28T23:34:19.341Z,61.00
2018-09-28T23:36:47.908Z,61.20
2018-09-28T23:39:16.467Z,61.30
2018-09-28T23:41:45.057Z,61.30
2018-09-28T23:44:13.751Z,61.40
2018-09-28T23:46:42.464Z,61.40
2018-09-28T23:49:11.193Z,61.50
2018-09-28T23:51:39.828Z,61.60
2018-09-28T23:54:08.565Z,61.70
2018-09-28T23:56:37.147Z,61.90
2018-09-28T23:59:05.768Z,61.90
